메인 페이지
METAR-TAF:

METAR-TAF

공항 :

나리타 국제공항

도쿄 나리타, 일본

위도: 35-46N, 경도: 140-23E, 고도: 41m

현재 날씨관측

예보는 36분 전, 01:30시(UTC)에 발표되었습니다.
서북서3kt남서풍과 북북동풍을 오가는
온도 29°C
습도 55%
기압 1011 hPa
시정 10km 이상
1500m 미만 상공 구름 및 적란운 없음

METAR: RJAA 250130Z 30003KT 220V030 CAVOK 29/19 Q1011 NOSIG RMK A2986

시각: 11:06 (02:06 UTC)

예보

예보는 2 시간 59분 전, 23:07시(UTC)에 발표되었습니다.
예보 대상 시간: 25일 00시부터 26일 06시까지 (UTC)
북북서6kt
시정 10km 이상
고도 3000ft 상공 구름 조금
전환 중
25일 04시부터 25일 06시까지 (UTC)
남동12kt
전환 중
25일 10시부터 25일 12시까지 (UTC)
5kt
시정: 4000m
고도 500ft 상공 구름 조금
고도 800ft 상공 구름 많음
박무
일시적
25일 15시부터 25일 21시까지 (UTC)
시정: 1800m
고도 200ft 상공 구름 조금
고도 300ft 상공 구름 많음
박무
전환 중
25일 21시부터 26일 00시까지 (UTC)
시정 10km 이상
고도 2000ft 상공 구름 조금
고도 3000ft 상공 구름 보통

TAF: RJAA 242307Z 2500/2606 34006KT 9999 FEW030 BECMG 2504/2506 14012KT BECMG 2510/2512 08005KT 4000 BR FEW005 BKN008 TEMPO 2515/2521 1800 BR FEW002 BKN003 BECMG 2521/2600 9999 NSW FEW020 SCT030

4,000개 이상의 공항 관측 자료 및 예보 (METAR 및 TAF 보고).

지도상에서 검색 가능한 기상관측소가 노란 점과 빨간 점으로 표시되어 있습니다.

기상관측소 명을 보려면 표시 위로 마우스를 이동하세요.

날씨 관측과 예보를 보려면 클릭하세요.

지도 변경 : 확대하려면 엑스 표시가 있는 녹색 버튼, 축소하려면 빼기 표시가 있는 녹색 버튼, 다음 페이지의 지도를 보려면 녹색 화살표를 클릭하세요.


METAR-TAF: